Летающим высоко и низко: ПОГОДА В АЭРОПОРТАХ

Datasource: http://meteocentre.com/cgi-bin/get_taf?STN=UUEE
    за последний срок по а/п  (сейчас 22:27 мск)
UUEE на Метеоцентре                GFS-прогноз по UUEE                   Погода сейчас
UUEE: TAF UUEE 232254Z 2400/2424 VRB01MPS 4000 BR OVC011 TXM11/2412Z

TNM19/2424Z TEMPO 2400/2407 2100 -SN BR OVC007 BECMG 2407/2409 9000

SCT011 BECMG 2419/2421 4000 BR=

TAF UUEE 232254Z 2400/2424 VRB01MPS 4000 BR OVC011 TXM11/2412Z

TNM19/2424Z

TEMPO 2400/2407 2100 -SN BR OVC007

BECMG 2407/2409 9000 SCT011

BECMG 2419/2421 4000 BR=

TAF UUEE 232254Z 2400/2424 VRB01MPS 4000 BR OVC011 TXM11/2412Z

TNM19/2424Z

TEMPO 2400/2407 2100 -SN BR OVC007

BECMG 2407/2409 9000 SCT011

BECMG 2419/2421 4000 BR=

Авиапрогноз Москва (Шереметьево), составлен 24 февраля 2:54 мск:
с 3:00 (24 февраля) до 3:00 (25 февраля) ветер переменный 1 м/c; видимость 4000 м; дымка; облачн. сплошная 330 м; [TXM11/2412Z] [TNM19/2424Z]
Временами с 3:00 (24 февраля) до 10:00 (24 февраля) видимость 2100 м; слаб. снег; дымка; облачн. сплошная 210 м;
Постеп. изменение: с 10:00 (24 февраля) до 12:00 (24 февраля) видимость 9000 м; облачн. разбросанная 330 м;
Постеп. изменение: с 22:00 (24 февраля) до 0:00 (25 февраля) видимость 4000 м; дымка;

Красным подкрашены опасные явления погоды, синим - предпосылки к ним, читайте комментарии. На данный момент охвачены Россия и Украина. Погода обновляется примерно раз в полчаса, вскоре после наблюдений. Прогноз обновляется примерно раз в час. Для обзорности глядите также фактическую погоду вокруг..., по трехчасовым срокам. Это тестовая версия, любые замечания приветствуются
GeoFAQ - гео-информационные технологии Летающие Болотоходцы

GeoFAQ: по просьбе сообщества Летающие болотоходцы
по рекомендациям Метеоцентра